sensor_id;sensor_type;location;lat;lon;timestamp;temperature;humidity
9095;DHT22;4583;49.796;9.902;2023-05-10T00:01:39;17.10;99.90
9095;DHT22;4583;49.796;9.902;2023-05-10T00:11:41;17.00;99.90
9095;DHT22;4583;49.796;9.902;2023-05-10T00:21:42;17.00;99.90
9095;DHT22;4583;49.796;9.902;2023-05-10T00:31:44;17.00;99.90
9095;DHT22;4583;49.796;9.902;2023-05-10T00:41:46;16.90;99.90
9095;DHT22;4583;49.796;9.902;2023-05-10T00:51:49;16.80;99.90
9095;DHT22;4583;49.796;9.902;2023-05-10T01:01:52;16.90;99.90
9095;DHT22;4583;49.796;9.902;2023-05-10T01:11:54;16.90;99.90
9095;DHT22;4583;49.796;9.902;2023-05-10T01:43:04;16.70;99.90
9095;DHT22;4583;49.796;9.902;2023-05-10T01:53:08;16.60;99.90
9095;DHT22;4583;49.796;9.902;2023-05-10T02:03:12;16.50;99.90
9095;DHT22;4583;49.796;9.902;2023-05-10T02:13:16;16.40;99.90
9095;DHT22;4583;49.796;9.902;2023-05-10T02:23:19;16.20;99.90
9095;DHT22;4583;49.796;9.902;2023-05-10T02:33:22;16.10;99.90
9095;DHT22;4583;49.796;9.902;2023-05-10T02:43:24;16.00;99.90
9095;DHT22;4583;49.796;9.902;2023-05-10T02:53:34;15.80;99.90
9095;DHT22;4583;49.796;9.902;2023-05-10T03:03:37;15.70;99.90
9095;DHT22;4583;49.796;9.902;2023-05-10T03:13:48;15.50;99.90
9095;DHT22;4583;49.796;9.902;2023-05-10T03:24:07;15.30;99.90
9095;DHT22;4583;49.796;9.902;2023-05-10T03:34:10;15.30;99.90
9095;DHT22;4583;49.796;9.902;2023-05-10T03:44:12;15.20;99.90
9095;DHT22;4583;49.796;9.902;2023-05-10T03:54:13;15.20;99.90
9095;DHT22;4583;49.796;9.902;2023-05-10T04:04:15;15.10;99.90
9095;DHT22;4583;49.796;9.902;2023-05-10T04:14:17;15.30;99.90
9095;DHT22;4583;49.796;9.902;2023-05-10T04:24:18;15.30;99.90
9095;DHT22;4583;49.796;9.902;2023-05-10T04:34:20;15.20;99.90
9095;DHT22;4583;49.796;9.902;2023-05-10T04:44:22;15.20;99.90
9095;DHT22;4583;49.796;9.902;2023-05-10T04:54:24;15.30;99.90
9095;DHT22;4583;49.796;9.902;2023-05-10T05:04:26;15.30;99.90
9095;DHT22;4583;49.796;9.902;2023-05-10T05:14:27;15.40;99.90
9095;DHT22;4583;49.796;9.902;2023-05-10T05:24:29;15.50;99.90
9095;DHT22;4583;49.796;9.902;2023-05-10T05:34:36;15.50;99.90
9095;DHT22;4583;49.796;9.902;2023-05-10T05:44:38;15.60;99.90
9095;DHT22;4583;49.796;9.902;2023-05-10T05:54:40;15.80;99.90
9095;DHT22;4583;49.796;9.902;2023-05-10T06:04:42;15.80;99.90
9095;DHT22;4583;49.796;9.902;2023-05-10T06:14:45;16.30;99.50
9095;DHT22;4583;49.796;9.902;2023-05-10T06:24:47;16.40;99.70
9095;DHT22;4583;49.796;9.902;2023-05-10T06:34:48;16.70;99.50
9095;DHT22;4583;49.796;9.902;2023-05-10T06:44:50;17.30;98.70
9095;DHT22;4583;49.796;9.902;2023-05-10T06:54:52;17.30;98.20
9095;DHT22;4583;49.796;9.902;2023-05-10T07:04:54;17.00;97.80
9095;DHT22;4583;49.796;9.902;2023-05-10T07:14:56;17.20;97.60
9095;DHT22;4583;49.796;9.902;2023-05-10T07:24:57;17.10;97.20
9095;DHT22;4583;49.796;9.902;2023-05-10T07:34:59;17.10;97.00
9095;DHT22;4583;49.796;9.902;2023-05-10T07:45:01;17.10;96.70
9095;DHT22;4583;49.796;9.902;2023-05-10T07:55:03;17.30;96.40
9095;DHT22;4583;49.796;9.902;2023-05-10T08:05:05;17.30;96.00
9095;DHT22;4583;49.796;9.902;2023-05-10T08:15:08;17.30;95.50
9095;DHT22;4583;49.796;9.902;2023-05-10T08:25:10;17.10;95.00
9095;DHT22;4583;49.796;9.902;2023-05-10T08:35:11;17.60;94.80
9095;DHT22;4583;49.796;9.902;2023-05-10T08:45:13;17.70;93.70
9095;DHT22;4583;49.796;9.902;2023-05-10T08:55:18;17.90;92.90
9095;DHT22;4583;49.796;9.902;2023-05-10T09:05:20;17.80;93.00
9095;DHT22;4583;49.796;9.902;2023-05-10T09:15:23;17.70;93.20
9095;DHT22;4583;49.796;9.902;2023-05-10T09:25:24;17.70;92.90
9095;DHT22;4583;49.796;9.902;2023-05-10T09:35:28;17.80;92.80
9095;DHT22;4583;49.796;9.902;2023-05-10T09:45:32;17.80;92.70
9095;DHT22;4583;49.796;9.902;2023-05-10T09:55:44;18.00;92.30
9095;DHT22;4583;49.796;9.902;2023-05-10T10:05:48;18.60;91.40
9095;DHT22;4583;49.796;9.902;2023-05-10T10:15:50;18.80;90.60
9095;DHT22;4583;49.796;9.902;2023-05-10T10:25:54;18.70;89.30
9095;DHT22;4583;49.796;9.902;2023-05-10T10:36:00;19.20;89.70
9095;DHT22;4583;49.796;9.902;2023-05-10T10:46:14;19.10;88.50
9095;DHT22;4583;49.796;9.902;2023-05-10T10:56:22;19.60;86.80
9095;DHT22;4583;49.796;9.902;2023-05-10T11:06:35;19.60;84.80
9095;DHT22;4583;49.796;9.902;2023-05-10T11:16:42;19.60;84.10
9095;DHT22;4583;49.796;9.902;2023-05-10T11:26:49;19.70;83.40
9095;DHT22;4583;49.796;9.902;2023-05-10T11:36:52;19.70;82.40
9095;DHT22;4583;49.796;9.902;2023-05-10T11:46:58;19.80;81.40
9095;DHT22;4583;49.796;9.902;2023-05-10T11:57:01;20.30;81.10
9095;DHT22;4583;49.796;9.902;2023-05-10T12:07:03;20.00;80.60
9095;DHT22;4583;49.796;9.902;2023-05-10T12:17:04;20.40;80.20
9095;DHT22;4583;49.796;9.902;2023-05-10T12:27:08;20.50;77.90
9095;DHT22;4583;49.796;9.902;2023-05-10T12:37:10;20.50;75.90
9095;DHT22;4583;49.796;9.902;2023-05-10T12:47:11;20.40;76.60
9095;DHT22;4583;49.796;9.902;2023-05-10T12:57:13;18.80;80.50
9095;DHT22;4583;49.796;9.902;2023-05-10T13:07:15;17.40;90.60
9095;DHT22;4583;49.796;9.902;2023-05-10T13:17:17;16.60;94.90
9095;DHT22;4583;49.796;9.902;2023-05-10T13:27:18;16.30;96.20
9095;DHT22;4583;49.796;9.902;2023-05-10T13:37:20;16.40;97.60
9095;DHT22;4583;49.796;9.902;2023-05-10T13:47:22;16.50;98.20
9095;DHT22;4583;49.796;9.902;2023-05-10T13:57:24;16.50;98.80
9095;DHT22;4583;49.796;9.902;2023-05-10T14:07:26;16.60;99.30
9095;DHT22;4583;49.796;9.902;2023-05-10T14:17:28;16.50;99.50
9095;DHT22;4583;49.796;9.902;2023-05-10T14:27:30;16.70;99.90
9095;DHT22;4583;49.796;9.902;2023-05-10T14:37:31;16.80;99.90
9095;DHT22;4583;49.796;9.902;2023-05-10T14:47:33;16.90;99.90
9095;DHT22;4583;49.796;9.902;2023-05-10T14:57:35;17.00;99.90
9095;DHT22;4583;49.796;9.902;2023-05-10T15:07:37;17.30;99.90
9095;DHT22;4583;49.796;9.902;2023-05-10T15:17:39;17.30;99.90
9095;DHT22;4583;49.796;9.902;2023-05-10T15:27:40;17.30;99.90
9095;DHT22;4583;49.796;9.902;2023-05-10T15:37:46;17.40;99.90
9095;DHT22;4583;49.796;9.902;2023-05-10T15:47:48;17.40;99.90
9095;DHT22;4583;49.796;9.902;2023-05-10T15:57:50;17.60;99.90
9095;DHT22;4583;49.796;9.902;2023-05-10T16:07:52;17.80;99.60
9095;DHT22;4583;49.796;9.902;2023-05-10T16:17:53;18.10;99.30
9095;DHT22;4583;49.796;9.902;2023-05-10T16:27:55;18.50;99.20
9095;DHT22;4583;49.796;9.902;2023-05-10T16:37:57;18.70;98.30
9095;DHT22;4583;49.796;9.902;2023-05-10T16:47:59;19.00;97.30
9095;DHT22;4583;49.796;9.902;2023-05-10T16:58:01;18.90;95.00
9095;DHT22;4583;49.796;9.902;2023-05-10T17:08:03;18.50;94.60
9095;DHT22;4583;49.796;9.902;2023-05-10T17:18:05;17.80;93.40
9095;DHT22;4583;49.796;9.902;2023-05-10T17:28:08;17.70;93.70
9095;DHT22;4583;49.796;9.902;2023-05-10T17:38:09;17.50;94.20
9095;DHT22;4583;49.796;9.902;2023-05-10T17:48:11;17.30;94.70
9095;DHT22;4583;49.796;9.902;2023-05-10T17:58:13;17.20;95.20
9095;DHT22;4583;49.796;9.902;2023-05-10T18:08:15;17.10;95.80
9095;DHT22;4583;49.796;9.902;2023-05-10T18:18:22;17.00;96.00
9095;DHT22;4583;49.796;9.902;2023-05-10T18:28:24;17.00;96.20
9095;DHT22;4583;49.796;9.902;2023-05-10T18:38:26;16.90;96.50
9095;DHT22;4583;49.796;9.902;2023-05-10T18:48:28;16.50;97.50
9095;DHT22;4583;49.796;9.902;2023-05-10T18:58:30;16.30;98.30
9095;DHT22;4583;49.796;9.902;2023-05-10T19:08:32;16.30;98.60
9095;DHT22;4583;49.796;9.902;2023-05-10T19:18:33;16.20;99.10
9095;DHT22;4583;49.796;9.902;2023-05-10T19:28:35;16.10;99.10
9095;DHT22;4583;49.796;9.902;2023-05-10T19:38:37;16.00;99.10
9095;DHT22;4583;49.796;9.902;2023-05-10T19:48:39;15.90;99.80
9095;DHT22;4583;49.796;9.902;2023-05-10T19:58:41;15.80;99.90
9095;DHT22;4583;49.796;9.902;2023-05-10T20:08:43;15.80;99.90
9095;DHT22;4583;49.796;9.902;2023-05-10T20:18:45;15.70;99.70
9095;DHT22;4583;49.796;9.902;2023-05-10T20:28:47;15.70;99.40
9095;DHT22;4583;49.796;9.902;2023-05-10T20:38:48;15.60;99.00
9095;DHT22;4583;49.796;9.902;2023-05-10T20:48:50;15.50;98.50
9095;DHT22;4583;49.796;9.902;2023-05-10T20:58:52;15.40;97.60
9095;DHT22;4583;49.796;9.902;2023-05-10T21:08:54;15.30;97.80
9095;DHT22;4583;49.796;9.902;2023-05-10T21:18:55;15.30;97.50
9095;DHT22;4583;49.796;9.902;2023-05-10T21:28:57;15.20;97.40
9095;DHT22;4583;49.796;9.902;2023-05-10T21:38:59;15.00;98.40
9095;DHT22;4583;49.796;9.902;2023-05-10T21:49:01;14.90;99.20
9095;DHT22;4583;49.796;9.902;2023-05-10T21:59:03;14.80;99.80
9095;DHT22;4583;49.796;9.902;2023-05-10T22:09:05;14.70;99.90
9095;DHT22;4583;49.796;9.902;2023-05-10T22:21:59;14.50;99.90
9095;DHT22;4583;49.796;9.902;2023-05-10T22:32:01;14.40;99.90
9095;DHT22;4583;49.796;9.902;2023-05-10T22:42:06;14.40;99.90
9095;DHT22;4583;49.796;9.902;2023-05-10T22:52:08;14.30;99.90
9095;DHT22;4583;49.796;9.902;2023-05-10T23:02:10;14.20;99.90
9095;DHT22;4583;49.796;9.902;2023-05-10T23:12:12;14.20;99.90
9095;DHT22;4583;49.796;9.902;2023-05-10T23:22:13;14.10;99.90
9095;DHT22;4583;49.796;9.902;2023-05-10T23:32:15;14.10;99.90
9095;DHT22;4583;49.796;9.902;2023-05-10T23:42:17;14.10;99.80
9095;DHT22;4583;49.796;9.902;2023-05-10T23:52:18;14.10;99.60
